Terminal Aerodrome Forecast
Issued by NWS

Home | Current Version | Previous Version | Text Only | Print | Product List | Glossary On
Versions: 1 2 3 4 5 6 7 8 9 10 11 12 13 14 15 16 17 18 19 20 21 22 23 24 25 26 27 28 29 30 31 32 33 34 35 36 37 38 39 40 41 42 43 44 45 46 47 48 49 50
000
FTUS45 KBOU 231506 AAA
TAFBJC
TAF AMD
KBJC 231506Z 2315/2412 VRB05KT 3SM BR BKN006 BKN035
      TEMPO 2316/2317 P6SM NSW SCT007 SCT015 BKN040
     FM231700 34010KT P6SM SCT025 BKN050
     FM231900 32008KT P6SM VCTS SCT025CB BKN045
      TEMPO 2319/2323 VRB25G35KT 4SM -TSRA BKN016CB OVC030
     FM232300 32010KT P6SM VCTS SCT035CB BKN060
      TEMPO 2323/2402 -SHRA BKN035
     FM240200 26007KT P6SM SCT060 BKN100
     FM240600 23007KT P6SM SCT060 SCT100
     FM240900 VRB05KT P6SM VCFG SCT006 SCT012
      TEMPO 2410/2412 3SM BR BKN006=

USA.gov is the U.S. government's official web portal to all federal, state and local government web resources and services.